Airfield :
LOGIN :

Register | Disclaimer

   EN    FR    IT 

 










Legend :    VFR   Marginal VFR   IFR   Intensive IFR   Very Intensive IFR
Visi :
Ceiling :
>= 8 km
>= 3000ft
5 to 8 km
1000 to 3000 ft
1500m to 5 km
500 to 1000 ft
800 to 1500m
200 to 500 ft
< 800m
< 200 ft
Symbols :   Thunderstorms  Fog  Heavy snow  Heavy precipitations  Wind > 20 kt
SIGMETs :     Misc.  Thunderstorms  Icing  Turbulence  Mountain Waves  Volcanic Ashes






- Airport Elevation : 670 ft
- IATA code : MSQ


UMMS - Minsk - 2

CURRENT METAR :
  • 212000Z 28008G12MPS 9999 OVC009 04/03 Q1017 R88/290048 NOSIG

EXPIRED METARs :
  • 211930Z 28008MPS 9999 OVC008 04/03 Q1018 R88/290048 NOSIG
  • 211900Z 27008G11MPS 9999 OVC007 04/03 Q1018 R88/290048 NOSIG
  • 211830Z 27005G09MPS 7000 -RA OVC007 04/03 Q1018 R88/290048 NOSIG
  • 211800Z 28008G11MPS 9999 OVC008 04/03 Q1018 R88/290048 NOSIG
  • 211730Z 28007G10MPS 9000 OVC007 04/03 Q1018 R31R/190050 R31L/////// NOSIG
  • 211700Z 28008G11MPS 9999 OVC008 04/03 Q1018 R31R/190050 R31L/////// NOSIG

TAF TAF UMMS
Valid from the 21 at 18:00 until the 22 at 18:00 UTC


211703Z 2118/2218 27008G13MPS 8000 BKN005
TEMPO 2118/2206 29012G17MPS 1200 SHRASN BR BKN003 BKN012CB
TEMPO 2206/2218 31012G17MPS 1500 SHSNRA BKN003 BKN010CB



MET'MAP, your aeronautical weather chart ! - Copyright ORBIFLY December 2007 - Disclaimer

ORBIFLY MET'MAP TEAM :

Programming & Development : Alexandra Zaïnal
Concept & original design : Baudouin d'Aumeries
Assistance for programming : Marc-Olivier Méhu
Technical & hardware support : Manuel Goepfert

Contact : metmap@orbifly.com




SOURCES & CREDITS :

   NOAA